Time;durP1;ratioP1;P1;durP2;ratioP2;P2;SDS_P1;SDS_P2;PMS_P1;PMS_P2;Temp;Humidity;BMP_temperature;BMP_pressure;BME280_temperature;BME280_humidity;BME280_pressure;Samples;Min_cycle;Max_cycle;Signal;HPM_P1;HPM_P2
2022/03/14 00:00:35;;;;;;;25.73;14.60;;;6.20;88.70;;;;;;5049511;28;20192;-85
2022/03/14 00:03:01;;;;;;;26.33;12.83;;;6.30;87.90;;;;;;5047824;28;20216;-84
2022/03/14 00:05:31;;;;;;;30.70;17.20;;;9.10;90.00;;;;;;5047737;28;20561;-85
2022/03/14 00:07:56;;;;;;;25.00;13.23;;;6.40;86.90;;;;;;5052793;28;20193;-85
2022/03/14 00:10:23;;;;;;;21.90;12.23;;;;;;;;;;5047645;28;20231;-84
2022/03/14 00:12:48;;;;;;;20.17;9.93;;;6.30;88.20;;;;;;5042405;28;20452;-84
2022/03/14 00:15:16;;;;;;;15.43;9.33;;;6.40;88.70;;;;;;5045757;28;20488;-84
2022/03/14 00:17:45;;;;;;;13.80;7.85;;;6.40;88.80;;;;;;5042199;28;20184;-85
2022/03/14 00:20:12;;;;;;;14.60;8.25;;;6.40;89.10;;;;;;5050077;28;20243;-85
2022/03/14 00:22:38;;;;;;;16.83;9.85;;;6.30;90.90;;;;;;5036276;28;20224;-84
2022/03/14 00:25:08;;;;;;;14.73;8.75;;;7.30;92.50;;;;;;5056677;28;20270;-84
2022/03/14 00:27:37;;;;;;;16.50;9.85;;;6.10;91.40;;;;;;5054414;28;20192;-85
2022/03/14 00:30:08;;;;;;;15.75;8.65;;;6.20;91.20;;;;;;5048858;28;20173;-84
2022/03/14 00:32:34;;;;;;;17.40;8.88;;;6.10;92.70;;;;;;5051604;28;20266;-84
2022/03/14 00:35:02;;;;;;;18.23;8.90;;;6.20;92.50;;;;;;5047433;28;20297;-86
2022/03/14 00:37:28;;;;;;;15.63;8.85;;;6.30;94.40;;;;;;5057965;28;20250;-84
2022/03/14 00:39:53;;;;;;;23.23;12.50;;;6.30;92.40;;;;;;5055697;28;20190;-84
2022/03/14 00:42:22;;;;;;;19.00;11.13;;;7.10;90.30;;;;;;5047201;28;20646;-84
2022/03/14 00:44:49;;;;;;;29.65;14.18;;;7.50;87.30;;;;;;5030501;28;20228;-85
2022/03/14 00:47:16;;;;;;;26.63;14.85;;;7.70;85.80;;;;;;5046388;28;20177;-85
2022/03/14 00:49:42;;;;;;;26.55;13.75;;;7.80;83.30;;;;;;5054947;28;20229;-85
2022/03/14 00:52:08;;;;;;;28.30;14.85;;;8.80;87.10;;;;;;5055247;28;20181;-84
2022/03/14 00:54:34;;;;;;;32.37;16.33;;;8.80;87.60;;;;;;5054279;28;20209;-85
2022/03/14 00:56:59;;;;;;;31.73;17.20;;;9.10;89.20;;;;;;5051664;28;20504;-85
2022/03/14 00:59:27;;;;;;;29.17;15.53;;;;;;;;;;5032948;28;20436;-83
2022/03/14 01:01:53;;;;;;;28.45;14.38;;;9.40;91.40;;;;;;5052195;28;20200;-85
2022/03/14 01:04:19;;;;;;;25.40;14.85;;;9.40;92.00;;;;;;5057689;28;20198;-86
2022/03/14 01:06:45;;;;;;;31.50;14.80;;;;;;;;;;5047816;28;20200;-85
2022/03/14 01:09:11;;;;;;;29.63;16.60;;;9.50;93.90;;;;;;5057182;28;20189;-84
2022/03/14 01:11:37;;;;;;;30.80;18.50;;;9.40;95.40;;;;;;5055636;28;20236;-85
2022/03/14 01:14:03;;;;;;;29.05;15.82;;;9.40;97.40;;;;;;5050214;28;20220;-85
2022/03/14 01:16:29;;;;;;;23.67;13.32;;;9.10;99.90;;;;;;5054507;28;20168;-84
2022/03/14 01:18:55;;;;;;;27.97;16.27;;;9.50;99.90;;;;;;5055293;28;20189;-84
2022/03/14 01:21:21;;;;;;;26.57;15.03;;;9.50;99.90;;;;;;5050139;28;20165;-84
2022/03/14 01:23:46;;;;;;;25.20;15.67;;;9.70;99.90;;;;;;5067304;28;20574;-85
2022/03/14 01:26:12;;;;;;;19.33;10.87;;;9.50;99.90;;;;;;5059536;28;20505;-84
2022/03/14 01:28:37;;;;;;;21.93;13.63;;;9.50;99.90;;;;;;5051596;28;20185;-85
2022/03/14 01:31:04;;;;;;;23.27;13.70;;;9.50;99.90;;;;;;5055554;28;20190;-84
2022/03/14 01:33:30;;;;;;;23.40;14.35;;;9.50;99.90;;;;;;5055354;28;20239;-85
2022/03/14 01:35:55;;;;;;;21.83;11.80;;;9.40;99.90;;;;;;5053662;28;20642;-86
2022/03/14 01:38:21;;;;;;;15.33;8.90;;;9.50;99.90;;;;;;5055987;28;20439;-85
2022/03/14 01:40:46;;;;;;;24.33;10.43;;;9.40;99.90;;;;;;5055798;28;20185;-86
2022/03/14 01:43:12;;;;;;;16.20;10.00;;;9.50;99.90;;;;;;5036662;28;20213;-85
2022/03/14 01:45:38;;;;;;;11.10;8.23;;;9.40;99.90;;;;;;5051911;28;20204;-82
2022/03/14 01:48:05;;;;;;;6.50;4.77;;;9.40;99.90;;;;;;5051918;28;20201;-86
2022/03/14 01:50:32;;;;;;;5.15;3.45;;;9.40;99.90;;;;;;5056012;28;20677;-85
2022/03/14 01:52:57;;;;;;;7.72;4.40;;;9.30;99.90;;;;;;5054463;28;20185;-85
2022/03/14 01:55:23;;;;;;;3.50;2.70;;;9.30;99.90;;;;;;5052635;28;20252;-86
2022/03/14 01:57:49;;;;;;;5.67;1.80;;;9.20;99.90;;;;;;5049550;28;20188;-85
2022/03/14 02:00:15;;;;;;;1.77;1.15;;;9.40;99.90;;;;;;5036343;28;20185;-85
2022/03/14 02:02:42;;;;;;;1.60;1.40;;;9.00;99.90;;;;;;5059644;28;20209;-85
2022/03/14 02:05:08;;;;;;;2.47;1.20;;;8.80;99.90;;;;;;5054484;28;20196;-85
2022/03/14 02:07:34;;;;;;;2.42;1.42;;;8.80;99.90;;;;;;5036057;28;20173;-85
2022/03/14 02:10:00;;;;;;;2.50;1.60;;;8.70;99.90;;;;;;5050920;28;20189;-85
2022/03/14 02:12:26;;;;;;;1.48;1.02;;;8.60;99.90;;;;;;5048146;28;20252;-86
2022/03/14 02:14:51;;;;;;;1.70;1.40;;;8.60;99.90;;;;;;5049917;28;20244;-85
2022/03/14 02:17:20;;;;;;;2.33;1.37;;;8.40;99.90;;;;;;5049853;28;20173;-85
2022/03/14 02:19:45;;;;;;;2.75;1.45;;;8.30;99.90;;;;;;5050888;28;20181;-85
2022/03/14 02:22:13;;;;;;;1.20;1.10;;;8.30;99.90;;;;;;5050044;28;20266;-85
2022/03/14 02:24:40;;;;;;;1.88;1.05;;;8.20;99.90;;;;;;5053385;28;20224;-85
2022/03/14 02:27:06;;;;;;;1.13;1.02;;;8.20;99.90;;;;;;5050953;28;20185;-84
2022/03/14 02:29:32;;;;;;;3.07;1.30;;;8.10;99.90;;;;;;5049063;28;20177;-84
2022/03/14 02:31:58;;;;;;;1.40;1.07;;;8.10;99.90;;;;;;5038561;28;20473;-84
2022/03/14 02:34:23;;;;;;;2.20;1.73;;;8.10;99.90;;;;;;5060529;28;20459;-84
2022/03/14 02:36:49;;;;;;;1.40;1.03;;;8.10;99.90;;;;;;5054093;28;20272;-84
2022/03/14 02:39:15;;;;;;;1.33;1.07;;;;;;;;;;5052373;28;20272;-84
2022/03/14 02:41:42;;;;;;;1.60;1.30;;;8.00;99.90;;;;;;5050429;28;20239;-84
2022/03/14 02:44:08;;;;;;;3.67;1.60;;;8.00;99.90;;;;;;5050040;28;20208;-84
2022/03/14 02:46:38;;;;;;;1.63;1.20;;;7.90;99.90;;;;;;5049094;28;20177;-85
2022/03/14 02:49:05;;;;;;;2.28;1.10;;;7.90;99.90;;;;;;5049232;28;20196;-84
2022/03/14 02:51:34;;;;;;;1.00;0.65;;;7.90;99.90;;;;;;5035949;28;20192;-83
2022/03/14 02:54:04;;;;;;;1.88;1.05;;;7.90;99.90;;;;;;5050756;28;20215;-84
2022/03/14 02:56:29;;;;;;;1.40;1.20;;;7.90;99.90;;;;;;5050896;28;20524;-84
2022/03/14 02:58:55;;;;;;;1.23;0.80;;;7.70;99.90;;;;;;5030956;28;20239;-84
2022/03/14 03:01:24;;;;;;;0.83;0.80;;;7.90;99.90;;;;;;5046430;28;20197;-83
2022/03/14 03:03:50;;;;;;;1.05;0.70;;;7.90;99.90;;;;;;5033848;28;20297;-84
2022/03/14 03:06:17;;;;;;;1.88;0.80;;;7.90;99.90;;;;;;5049600;28;20607;-84
2022/03/14 03:08:44;;;;;;;0.88;0.70;;;7.90;99.90;;;;;;5045070;28;20181;-85
2022/03/14 03:11:13;;;;;;;1.10;0.68;;;7.90;99.90;;;;;;5048377;28;20173;-85
2022/03/14 03:13:41;;;;;;;1.13;0.98;;;6.80;99.90;;;;;;5047273;28;20209;-84
2022/03/14 03:16:07;;;;;;;0.88;0.60;;;7.70;99.90;;;;;;5032703;28;20230;-83
2022/03/14 03:18:33;;;;;;;1.08;0.90;;;7.80;99.90;;;;;;5035169;28;20177;-84
2022/03/14 03:20:59;;;;;;;1.45;1.20;;;7.70;99.90;;;;;;5030723;28;20252;-85
2022/03/14 03:23:25;;;;;;;1.50;0.73;;;;;;;;;;5057821;28;20217;-85
2022/03/14 03:25:50;;;;;;;1.13;0.70;;;7.70;99.90;;;;;;5038497;28;20908;-84
2022/03/14 03:28:16;;;;;;;0.87;0.70;;;7.80;99.90;;;;;;5032385;28;20444;-84
2022/03/14 03:30:41;;;;;;;0.87;0.50;;;7.70;99.90;;;;;;5043174;28;20256;-84
2022/03/14 03:33:07;;;;;;;1.17;1.07;;;7.80;99.90;;;;;;5037651;28;20216;-85
2022/03/14 03:35:32;;;;;;;3.97;1.20;;;9.00;99.90;;;;;;5034258;28;20201;-85
2022/03/14 03:37:58;;;;;;;1.73;0.80;;;7.70;99.90;;;;;;5047631;28;20188;-87
2022/03/14 03:40:24;;;;;;;1.25;1.05;;;7.70;99.90;;;;;;5045927;28;20272;-85
2022/03/14 03:42:49;;;;;;;1.30;1.20;;;7.70;99.90;;;;;;5047752;28;20724;-87
2022/03/14 03:45:17;;;;;;;1.13;0.90;;;7.60;99.90;;;;;;5053602;28;20215;-84
2022/03/14 03:47:43;;;;;;;1.05;0.75;;;7.60;99.90;;;;;;5030039;28;20760;-85
2022/03/14 03:50:09;;;;;;;1.97;1.17;;;7.60;99.90;;;;;;5047320;28;20256;-84
2022/03/14 03:52:34;;;;;;;4.65;1.80;;;7.60;99.90;;;;;;5035465;28;20200;-85
2022/03/14 03:55:00;;;;;;;1.40;1.03;;;;;;;;;;5054985;28;20202;-85
2022/03/14 03:57:26;;;;;;;3.10;1.60;;;;;;;;;;5051154;28;20208;-84
2022/03/14 03:59:52;;;;;;;2.07;1.57;;;7.60;99.90;;;;;;5049875;28;20411;-84
2022/03/14 04:02:19;;;;;;;1.67;1.23;;;7.60;99.90;;;;;;5058556;28;20475;-84
2022/03/14 04:04:48;;;;;;;2.60;1.23;;;7.70;99.90;;;;;;5029194;28;20260;-84
2022/03/14 04:07:13;;;;;;;2.78;1.58;;;7.70;99.90;;;;;;5051262;28;22266;-84
2022/03/14 04:09:39;;;;;;;3.20;1.60;;;7.70;99.90;;;;;;5055883;28;20184;-84
2022/03/14 04:12:05;;;;;;;3.13;1.73;;;7.60;99.90;;;;;;5053989;28;20444;-84
2022/03/14 04:14:30;;;;;;;1.83;1.73;;;7.60;99.90;;;;;;5040590;28;20212;-85
2022/03/14 04:16:58;;;;;;;1.90;1.57;;;7.60;99.90;;;;;;5058262;28;20192;-84
2022/03/14 04:19:23;;;;;;;3.45;1.65;;;7.70;99.90;;;;;;5061453;28;20162;-83
2022/03/14 04:21:51;;;;;;;2.00;1.60;;;7.60;99.90;;;;;;5062750;28;20243;-85
2022/03/14 04:24:17;;;;;;;1.15;1.05;;;7.60;99.90;;;;;;5055833;28;20189;-85
2022/03/14 04:26:43;;;;;;;3.07;1.93;;;7.60;99.90;;;;;;5037348;28;20196;-84
2022/03/14 04:29:08;;;;;;;1.83;1.60;;;7.60;99.90;;;;;;5031291;28;20184;-85
2022/03/14 04:31:34;;;;;;;3.00;1.73;;;7.60;99.90;;;;;;5040589;28;20570;-85
2022/03/14 04:34:00;;;;;;;3.53;2.40;;;7.60;99.90;;;;;;5047306;28;20259;-85
2022/03/14 04:36:25;;;;;;;1.67;1.27;;;7.60;99.90;;;;;;5036692;28;20424;-85
2022/03/14 04:38:51;;;;;;;2.73;1.50;;;7.60;99.90;;;;;;5051029;28;20699;-84
2022/03/14 04:41:16;;;;;;;2.47;1.60;;;7.80;99.90;;;;;;5051388;28;20181;-84
2022/03/14 04:43:42;;;;;;;2.70;1.70;;;7.60;99.90;;;;;;5067721;28;20248;-84
2022/03/14 04:46:08;;;;;;;2.17;1.80;;;7.60;99.90;;;;;;5050660;28;20182;-85
2022/03/14 04:48:33;;;;;;;2.03;1.53;;;7.60;99.90;;;;;;5054622;28;20195;-84
2022/03/14 04:50:59;;;;;;;2.63;2.10;;;7.50;99.90;;;;;;5050215;28;20245;-85
2022/03/14 04:53:25;;;;;;;1.65;1.55;;;7.50;99.90;;;;;;5048939;28;20181;-85
2022/03/14 04:55:51;;;;;;;3.13;1.90;;;;;;;;;;5047747;28;20292;-85
2022/03/14 04:58:17;;;;;;;2.37;2.00;;;7.50;99.90;;;;;;5033620;28;20177;-83
2022/03/14 05:00:43;;;;;;;2.95;1.70;;;7.50;99.90;;;;;;5052716;28;20464;-85
2022/03/14 05:03:10;;;;;;;3.33;1.30;;;7.60;99.90;;;;;;5052349;28;20213;-85
2022/03/14 05:05:35;;;;;;;3.30;1.52;;;7.50;99.90;;;;;;5051742;28;20466;-85
2022/03/14 05:08:02;;;;;;;3.27;1.57;;;7.50;99.90;;;;;;5048009;28;20245;-84
2022/03/14 05:10:28;;;;;;;1.83;1.50;;;7.50;99.90;;;;;;5052064;28;20439;-85
2022/03/14 05:12:53;;;;;;;2.13;1.73;;;7.60;99.90;;;;;;5036627;28;20196;-85
2022/03/14 05:15:19;;;;;;;1.80;1.60;;;7.60;99.90;;;;;;5048839;28;20217;-86
2022/03/14 05:17:45;;;;;;;3.20;1.80;;;7.60;99.90;;;;;;5046969;28;20208;-85
2022/03/14 05:20:11;;;;;;;4.00;2.55;;;7.50;99.90;;;;;;5050507;28;20189;-84
2022/03/14 05:22:45;;;;;;;3.03;1.52;;;7.50;99.90;;;;;;5036364;28;20213;-85
2022/03/14 05:25:11;;;;;;;2.25;0.90;;;8.00;99.90;;;;;;5050598;28;20205;-84
2022/03/14 05:27:39;;;;;;;1.07;0.97;;;7.50;99.90;;;;;;5051481;28;20215;-84
2022/03/14 05:30:08;;;;;;;1.75;0.80;;;7.50;99.90;;;;;;5055354;28;20432;-84
2022/03/14 05:32:35;;;;;;;3.60;0.90;;;7.50;99.90;;;;;;5033120;28;20247;-86
2022/03/14 05:35:00;;;;;;;1.88;1.77;;;7.50;99.90;;;;;;5051041;28;21114;-85
2022/03/14 05:37:26;;;;;;;2.93;1.20;;;7.50;99.90;;;;;;5059808;23;20256;-81
2022/03/14 05:39:51;;;;;;;2.50;0.90;;;7.50;99.90;;;;;;5013581;28;20173;-82
2022/03/14 05:42:17;;;;;;;1.67;1.20;;;7.50;99.90;;;;;;5028762;28;20239;-81
2022/03/14 05:44:43;;;;;;;4.33;1.00;;;7.50;99.90;;;;;;5029386;28;20200;-81
2022/03/14 05:47:09;;;;;;;3.45;1.00;;;7.50;99.90;;;;;;5029908;28;20185;-81
2022/03/14 05:49:35;;;;;;;3.70;0.98;;;7.50;99.90;;;;;;5027534;28;20439;-82
2022/03/14 05:52:01;;;;;;;2.93;1.70;;;7.50;99.90;;;;;;5031511;28;20235;-81
2022/03/14 05:54:26;;;;;;;3.30;1.30;;;7.50;99.90;;;;;;5026681;28;21052;-82
2022/03/14 05:56:52;;;;;;;4.90;1.30;;;7.50;99.90;;;;;;5029432;28;20217;-81
2022/03/14 05:59:18;;;;;;;3.03;1.67;;;7.50;99.90;;;;;;5030400;28;20182;-82
2022/03/14 06:01:44;;;;;;;5.40;1.03;;;7.50;99.90;;;;;;5028287;28;20566;-82
2022/03/14 06:04:10;;;;;;;4.30;1.42;;;7.50;99.90;;;;;;5014472;28;22157;-82
2022/03/14 06:06:37;;;;;;;5.67;1.23;;;7.40;99.90;;;;;;5017992;28;20213;-81
2022/03/14 06:09:03;;;;;;;5.38;1.38;;;7.40;99.90;;;;;;5021137;28;20201;-81
2022/03/14 06:11:29;;;;;;;2.92;1.48;;;7.30;99.90;;;;;;5026781;28;20185;-81
2022/03/14 06:13:54;;;;;;;2.80;1.60;;;7.30;99.90;;;;;;5027353;28;20174;-81
2022/03/14 06:16:21;;;;;;;8.10;1.30;;;7.20;99.90;;;;;;5024523;28;20307;-80
2022/03/14 06:18:46;;;;;;;3.15;1.00;;;7.20;99.90;;;;;;5023256;28;20597;-80
2022/03/14 06:21:12;;;;;;;3.30;1.33;;;7.20;99.90;;;;;;5019202;28;20207;-80
2022/03/14 06:23:37;;;;;;;3.23;1.20;;;7.20;99.90;;;;;;5022343;28;20682;-79
2022/03/14 06:26:03;;;;;;;3.37;1.43;;;7.20;99.90;;;;;;5017242;28;20597;-79
2022/03/14 06:28:29;;;;;;;2.33;1.63;;;7.20;99.90;;;;;;5020244;28;20178;-78
2022/03/14 06:30:54;;;;;;;5.33;1.80;;;7.30;99.90;;;;;;5022171;28;20263;-79
2022/03/14 06:33:20;;;;;;;11.50;2.00;;;7.30;99.90;;;;;;5017630;28;20182;-79
2022/03/14 06:35:46;;;;;;;10.27;4.53;;;7.30;99.90;;;;;;5022048;28;20208;-79
2022/03/14 06:38:11;;;;;;;7.07;2.13;;;7.40;99.90;;;;;;5023477;28;20662;-79
2022/03/14 06:40:41;;;;;;;6.03;1.80;;;7.50;99.90;;;;;;5020916;28;20435;-79
2022/03/14 06:43:07;;;;;;;4.72;1.90;;;7.60;99.90;;;;;;5021589;28;20700;-79
2022/03/14 06:45:33;;;;;;;7.10;1.70;;;7.60;99.90;;;;;;5020348;28;20398;-79
2022/03/14 06:48:00;;;;;;;2.50;1.03;;;7.70;99.90;;;;;;5019041;28;20237;-79
2022/03/14 06:50:26;;;;;;;3.15;1.10;;;7.80;99.90;;;;;;5019874;28;20688;-79
2022/03/14 06:52:51;;;;;;;2.15;0.95;;;7.90;99.90;;;;;;5021094;28;20268;-79
2022/03/14 06:55:17;;;;;;;2.53;1.30;;;8.00;99.90;;;;;;5020509;28;20212;-79
2022/03/14 06:57:43;;;;;;;2.13;0.93;;;8.10;99.90;;;;;;5003033;28;20196;-79
2022/03/14 07:00:10;;;;;;;8.60;1.43;;;8.10;99.90;;;;;;5010505;28;20186;-79
2022/03/14 07:02:39;;;;;;;1.85;1.33;;;8.00;99.90;;;;;;4998241;28;20213;-79
2022/03/14 07:05:05;;;;;;;2.00;0.90;;;7.90;99.90;;;;;;5019578;28;20206;-79
2022/03/14 07:07:30;;;;;;;2.45;1.33;;;8.00;99.90;;;;;;5020293;28;20178;-79
2022/03/14 07:09:56;;;;;;;1.87;1.37;;;8.00;99.90;;;;;;5024441;28;20619;-79
2022/03/14 07:12:21;;;;;;;6.90;1.40;;;8.30;99.90;;;;;;5018956;28;20192;-79
2022/03/14 07:14:47;;;;;;;5.03;1.37;;;8.90;99.90;;;;;;5022607;28;20232;-81
2022/03/14 07:17:12;;;;;;;2.93;1.50;;;8.90;99.90;;;;;;5021146;28;20196;-79
2022/03/14 07:19:42;;;;;;;4.83;1.23;;;8.90;99.90;;;;;;5018480;28;20638;-79
2022/03/14 07:22:08;;;;;;;8.98;2.65;;;8.60;99.90;;;;;;5018455;28;20742;-81
2022/03/14 07:24:34;;;;;;;3.20;1.25;;;9.70;99.90;;;;;;5014811;28;20725;-79
2022/03/14 07:26:59;;;;;;;9.27;1.27;;;9.80;99.90;;;;;;5019168;28;20182;-79
2022/03/14 07:29:25;;;;;;;4.37;1.00;;;10.90;99.90;;;;;;5020071;28;20177;-81
2022/03/14 07:31:50;;;;;;;5.20;0.80;;;12.00;99.90;;;;;;5014721;28;20300;-79
2022/03/14 07:34:16;;;;;;;2.27;1.10;;;12.30;99.90;;;;;;5020487;28;20220;-79
2022/03/14 07:36:42;;;;;;;2.97;1.20;;;11.20;99.90;;;;;;5016421;28;20703;-79
2022/03/14 07:39:08;;;;;;;3.73;1.37;;;10.10;99.90;;;;;;5021693;28;20583;-79
2022/03/14 07:41:33;;;;;;;6.60;1.33;;;10.20;99.90;;;;;;5019379;28;20205;-79
2022/03/14 07:44:00;;;;;;;8.13;1.17;;;11.50;99.90;;;;;;5015885;28;20208;-81
2022/03/14 07:46:26;;;;;;;3.72;1.52;;;11.60;99.90;;;;;;5018878;28;20201;-81
2022/03/14 07:48:52;;;;;;;12.90;1.40;;;11.10;99.90;;;;;;5018015;28;20870;-79
2022/03/14 07:51:18;;;;;;;3.37;1.10;;;10.80;99.90;;;;;;5018647;28;20174;-79
2022/03/14 07:53:43;;;;;;;4.70;1.40;;;10.80;99.90;;;;;;5017964;28;20178;-79
2022/03/14 07:56:11;;;;;;;3.67;1.13;;;11.20;99.90;;;;;;5016131;28;20206;-79
2022/03/14 07:58:36;;;;;;;3.60;1.00;;;10.60;99.90;;;;;;5022111;28;20181;-80
2022/03/14 08:01:03;;;;;;;8.83;1.40;;;;;;;;;;5008868;28;20183;-80
2022/03/14 08:03:28;;;;;;;7.70;1.63;;;9.20;99.90;;;;;;5020361;28;20602;-81
2022/03/14 08:06:00;;;;;;;6.07;1.47;;;9.10;99.90;;;;;;5014858;28;20213;-80
2022/03/14 08:08:26;;;;;;;5.20;1.63;;;8.90;99.90;;;;;;5001953;28;20187;-81
2022/03/14 08:10:53;;;;;;;3.10;1.63;;;8.90;99.90;;;;;;5021346;28;20215;-81
2022/03/14 08:13:20;;;;;;;7.40;1.58;;;9.20;99.90;;;;;;5003662;28;20253;-81
2022/03/14 08:15:46;;;;;;;4.13;1.23;;;9.30;99.90;;;;;;5019857;28;20255;-81
2022/03/14 08:18:13;;;;;;;4.00;1.37;;;9.50;99.90;;;;;;5019954;28;20241;-81
2022/03/14 08:20:39;;;;;;;3.47;1.30;;;9.60;99.90;;;;;;5016138;28;20462;-81
2022/03/14 08:23:05;;;;;;;4.72;1.17;;;9.60;99.90;;;;;;5018706;28;20205;-81
2022/03/14 08:25:34;;;;;;;2.85;0.73;;;9.60;99.90;;;;;;5018540;28;20202;-79
2022/03/14 08:27:59;;;;;;;5.40;1.50;;;9.60;99.90;;;;;;5020881;28;20177;-79
2022/03/14 08:30:25;;;;;;;4.57;1.13;;;9.70;99.90;;;;;;5017377;28;20263;-81
2022/03/14 08:32:53;;;;;;;3.37;1.40;;;9.60;99.90;;;;;;5020204;28;20192;-81
2022/03/14 08:35:20;;;;;;;4.82;1.63;;;9.40;99.90;;;;;;5019879;28;20202;-81
2022/03/14 08:37:47;;;;;;;6.38;1.20;;;9.80;99.90;;;;;;5018643;28;20255;-81
2022/03/14 08:40:16;;;;;;;3.13;1.10;;;10.10;99.90;;;;;;5020595;28;20236;-81
2022/03/14 08:42:43;;;;;;;10.70;2.20;;;10.20;99.90;;;;;;5025820;28;20308;-81
2022/03/14 08:45:09;;;;;;;13.43;1.98;;;10.60;99.90;;;;;;5022568;28;20625;-81
2022/03/14 08:47:35;;;;;;;10.30;1.55;;;12.20;99.90;;;;;;5003500;28;20196;-81
2022/03/14 08:50:03;;;;;;;8.85;1.35;;;13.70;99.90;;;;;;5000349;28;20351;-79
2022/03/14 08:52:30;;;;;;;6.10;1.70;;;13.40;99.90;;;;;;5021656;28;20185;-79
2022/03/14 08:54:56;;;;;;;1.75;0.77;;;12.60;99.90;;;;;;5013286;28;20206;-79
2022/03/14 08:57:22;;;;;;;12.85;1.55;;;12.50;99.90;;;;;;5020046;28;20293;-81
2022/03/14 08:59:47;;;;;;;2.50;0.73;;;12.60;99.90;;;;;;5017165;28;20650;-78
2022/03/14 09:02:13;;;;;;;5.03;1.17;;;12.60;99.90;;;;;;5018988;28;20202;-81
2022/03/14 09:04:38;;;;;;;4.20;1.03;;;10.80;99.90;;;;;;5016959;28;20174;-81
2022/03/14 09:07:05;;;;;;;4.20;1.30;;;10.80;99.90;;;;;;5001401;28;20247;-81
2022/03/14 09:09:31;;;;;;;5.60;1.17;;;11.50;99.90;;;;;;5004317;28;20194;-81
2022/03/14 09:11:58;;;;;;;3.47;1.50;;;12.70;99.90;;;;;;5021574;28;20247;-81
2022/03/14 09:14:24;;;;;;;5.53;1.10;;;13.70;99.90;;;;;;5021952;28;20523;-80
2022/03/14 09:16:50;;;;;;;3.73;1.00;;;13.20;99.90;;;;;;5023969;28;20352;-81
2022/03/14 09:19:16;;;;;;;9.20;2.35;;;12.30;99.90;;;;;;5022328;28;20448;-81
2022/03/14 09:21:41;;;;;;;5.80;1.60;;;13.60;99.90;;;;;;5019118;28;20201;-78
2022/03/14 09:24:07;;;;;;;4.93;1.03;;;14.70;99.90;;;;;;5021881;28;20193;-81
2022/03/14 09:26:35;;;;;;;7.20;1.83;;;15.60;99.90;;;;;;5014630;28;20701;-79
2022/03/14 09:29:01;;;;;;;4.50;1.20;;;17.50;99.90;;;;;;5016099;28;20934;-79
2022/03/14 09:31:27;;;;;;;1.93;1.20;;;17.10;99.00;;;;;;5018014;28;20983;-79
2022/03/14 09:33:52;;;;;;;6.00;1.40;;;16.50;98.90;;;;;;5019706;28;20464;-79
2022/03/14 09:36:18;;;;;;;5.43;0.77;;;16.50;98.10;;;;;;5016912;28;20198;-79
2022/03/14 09:38:44;;;;;;;3.83;1.37;;;16.40;98.80;;;;;;5022187;28;20178;-79
2022/03/14 09:41:12;;;;;;;4.53;1.00;;;16.60;97.60;;;;;;5002600;28;20181;-79
2022/03/14 09:43:39;;;;;;;7.80;1.87;;;16.50;96.20;;;;;;5021452;28;20468;-80
2022/03/14 09:46:07;;;;;;;1.17;0.73;;;16.90;96.00;;;;;;5018204;28;20898;-79
2022/03/14 09:48:36;;;;;;;2.40;1.17;;;16.60;93.10;;;;;;5013383;28;20985;-80
2022/03/14 09:51:03;;;;;;;5.60;1.60;;;16.50;93.90;;;;;;5013302;28;20440;-79
2022/03/14 09:53:29;;;;;;;3.60;1.10;;;15.30;93.70;;;;;;5014854;28;20985;-79
2022/03/14 09:55:56;;;;;;;6.30;0.90;;;15.60;95.50;;;;;;5022952;28;20464;-79
2022/03/14 09:58:22;;;;;;;4.90;1.30;;;15.90;94.90;;;;;;5019517;28;20458;-79
2022/03/14 10:00:49;;;;;;;1.87;0.70;;;15.90;94.70;;;;;;4997476;28;20436;-79
2022/03/14 10:03:16;;;;;;;2.17;0.63;;;14.90;92.70;;;;;;5017947;28;20464;-79
2022/03/14 10:05:44;;;;;;;4.15;0.93;;;13.10;96.50;;;;;;5003433;28;20460;-79
2022/03/14 10:08:10;;;;;;;6.25;1.33;;;13.20;98.60;;;;;;5019793;28;20182;-79
2022/03/14 10:10:39;;;;;;;4.70;1.25;;;13.10;98.60;;;;;;5011917;28;20178;-79
2022/03/14 10:13:10;;;;;;;4.97;1.40;;;13.10;98.40;;;;;;5019698;28;20228;-79
2022/03/14 10:15:37;;;;;;;2.63;1.35;;;13.50;99.90;;;;;;5014849;28;20237;-79
2022/03/14 10:18:18;;;;;;;6.32;1.30;;;14.00;99.50;;;;;;5016000;28;20563;-79
2022/03/14 10:20:57;;;;;;;8.15;1.30;;;14.40;99.00;;;;;;5013118;28;20264;-79
2022/03/14 10:23:37;;;;;;;6.35;1.00;;;14.30;98.10;;;;;;5019238;28;20534;-79
2022/03/14 10:26:06;;;;;;;5.03;1.27;;;13.30;97.40;;;;;;5019404;28;20208;-79
2022/03/14 10:28:35;;;;;;;3.45;1.33;;;12.80;97.20;;;;;;5020153;28;20178;-78
2022/03/14 10:31:02;;;;;;;2.10;1.10;;;13.00;99.90;;;;;;5018211;28;20231;-79
2022/03/14 10:33:30;;;;;;;5.22;1.52;;;13.50;99.60;;;;;;5016067;28;20190;-79
2022/03/14 10:35:57;;;;;;;2.40;1.20;;;13.70;99.60;;;;;;5016352;28;20202;-79
2022/03/14 10:38:23;;;;;;;4.20;1.13;;;14.10;97.90;;;;;;5020731;28;20853;-81
2022/03/14 10:40:50;;;;;;;3.40;1.42;;;13.50;98.30;;;;;;5023135;28;20667;-79
2022/03/14 10:43:33;;;;;;;3.42;0.90;;;13.40;98.80;;;;;;5022566;28;20240;-78
2022/03/14 10:46:00;;;;;;;4.35;1.10;;;13.50;99.00;;;;;;5019536;28;20284;-78
2022/03/14 10:48:38;;;;;;;2.72;1.25;;;13.00;97.50;;;;;;5019091;28;20738;-81
2022/03/14 10:51:09;;;;;;;3.42;0.93;;;12.50;98.30;;;;;;5016421;28;20186;-81
2022/03/14 10:53:41;;;;;;;2.10;0.75;;;12.80;98.50;;;;;;5018446;28;20247;-80
2022/03/14 10:56:06;;;;;;;8.20;1.75;;;13.20;98.20;;;;;;5020560;28;20220;-79
2022/03/14 10:58:33;;;;;;;4.30;1.13;;;13.70;97.50;;;;;;5018051;28;20189;-81
2022/03/14 11:01:04;;;;;;;5.97;1.30;;;13.90;96.80;;;;;;5022075;28;20669;-78
2022/03/14 11:03:35;;;;;;;2.83;1.10;;;13.80;97.00;;;;;;5023336;28;20197;-78
2022/03/14 11:06:13;;;;;;;2.97;0.93;;;14.60;96.30;;;;;;5017998;28;20663;-81
2022/03/14 11:08:43;;;;;;;6.17;1.17;;;14.90;95.60;;;;;;5021069;28;20428;-81
2022/03/14 11:11:14;;;;;;;2.03;0.73;;;13.10;96.80;;;;;;5018740;28;20432;-80
2022/03/14 11:13:42;;;;;;;6.70;1.05;;;13.10;97.70;;;;;;5021798;28;20178;-80
2022/03/14 11:16:19;;;;;;;5.75;0.73;;;12.70;97.50;;;;;;5022224;28;20286;-78
2022/03/14 11:18:46;;;;;;;1.77;0.80;;;12.30;97.70;;;;;;5016753;28;20216;-81
2022/03/14 11:21:16;;;;;;;4.55;1.33;;;12.10;96.90;;;;;;5016086;28;20270;-81
2022/03/14 11:23:47;;;;;;;2.65;1.10;;;12.00;98.10;;;;;;5019127;28;20335;-81
2022/03/14 11:26:15;;;;;;;1.17;0.60;;;11.80;98.30;;;;;;5022925;28;20211;-80
2022/03/14 11:28:42;;;;;;;3.55;1.02;;;12.00;99.20;;;;;;4995867;28;20189;-80
2022/03/14 11:31:09;;;;;;;5.03;0.68;;;12.20;98.90;;;;;;5019220;28;20272;-80
2022/03/14 11:33:35;;;;;;;2.72;0.70;;;12.40;99.40;;;;;;5024074;28;20316;-80
2022/03/14 11:36:02;;;;;;;4.47;1.30;;;12.90;99.30;;;;;;5021752;28;20880;-80
2022/03/14 11:38:28;;;;;;;2.40;0.70;;;13.30;97.90;;;;;;5021879;28;20454;-80
2022/03/14 11:40:55;;;;;;;7.22;0.82;;;13.90;98.10;;;;;;5005600;28;20244;-79
2022/03/14 11:43:21;;;;;;;3.90;1.08;;;13.60;97.70;;;;;;5020542;28;20259;-80
2022/03/14 11:45:47;;;;;;;4.40;0.90;;;13.70;99.80;;;;;;5016946;28;20552;-80
2022/03/14 11:48:13;;;;;;;8.57;1.10;;;12.80;99.80;;;;;;5001425;28;20532;-80
2022/03/14 11:50:56;;;;;;;3.08;1.17;;;12.30;99.90;;;;;;5019225;28;20639;-80
2022/03/14 11:53:30;;;;;;;6.82;1.02;;;12.60;99.90;;;;;;5021660;28;20193;-80
2022/03/14 11:56:01;;;;;;;6.60;1.65;;;12.80;99.90;;;;;;5021409;28;20676;-79
2022/03/14 11:58:36;;;;;;;7.97;3.05;;;12.60;99.90;;;;;;5016175;28;20494;-79
2022/03/14 12:01:21;;;;;;;1.70;0.90;;;12.30;99.90;;;;;;5021512;28;20200;-79
2022/03/14 12:03:59;;;;;;;5.85;0.93;;;13.00;99.90;;;;;;5018526;28;20221;-79
2022/03/14 12:06:46;;;;;;;2.60;1.27;;;13.50;99.90;;;;;;5017414;28;20189;-81
2022/03/14 12:09:23;;;;;;;3.25;1.25;;;13.10;99.90;;;;;;5022843;28;20618;-81
2022/03/14 12:11:53;;;;;;;2.70;1.13;;;12.40;99.90;;;;;;5021607;28;20378;-79
2022/03/14 12:14:43;;;;;;;3.75;0.88;;;12.40;99.90;;;;;;5025157;28;20776;-79
2022/03/14 12:17:14;;;;;;;1.13;0.63;;;12.60;99.90;;;;;;5011991;28;20190;-79
2022/03/14 12:19:47;;;;;;;3.28;1.02;;;13.00;99.90;;;;;;5078003;23;20600;-87
2022/03/14 12:22:32;;;;;;;1.50;0.90;;;13.60;99.90;;;;;;5040417;28;20234;-88
2022/03/14 12:25:00;;;;;;;6.80;0.68;;;13.80;99.90;;;;;;5049858;28;20172;-85
2022/03/14 12:27:33;;;;;;;4.03;0.90;;;13.60;99.20;;;;;;5047093;28;20247;-86
2022/03/14 12:30:00;;;;;;;4.80;1.25;;;13.70;99.10;;;;;;5043895;28;20201;-87
2022/03/14 12:32:32;;;;;;;3.75;1.30;;;13.90;99.90;;;;;;5042372;28;20235;-87
2022/03/14 12:35:07;;;;;;;8.65;1.83;;;14.70;99.20;;;;;;5061334;28;20185;-87
2022/03/14 12:37:42;;;;;;;5.68;1.10;;;14.10;99.70;;;;;;5037372;28;20204;-87
2022/03/14 12:40:13;;;;;;;1.50;0.90;;;14.20;99.60;;;;;;5042119;28;20210;-86
2022/03/14 12:42:45;;;;;;;7.15;1.10;;;13.50;98.10;;;;;;5062661;28;20228;-86
2022/03/14 12:45:31;;;;;;;5.43;1.00;;;13.50;99.50;;;;;;5039522;28;20178;-86
2022/03/14 12:48:20;;;;;;;2.40;1.08;;;13.10;99.80;;;;;;5055468;28;20191;-87
2022/03/14 12:50:56;;;;;;;2.15;0.93;;;13.20;99.90;;;;;;5032081;28;20180;-86
2022/03/14 12:53:27;;;;;;;7.97;1.00;;;13.20;98.20;;;;;;5041673;28;20183;-87